Wilder, VT (05088)

3:53 PM EDT on July 20, 2017 (GMT -0400)
Wilder Village | | Change Station

Elev 451 ft 43.68 °N, 72.31 °W | Updated 10 minutes ago

Light Rain
Light Rain
71.2 °F
Feels Like 71.2 °F
N
0.0
Wind Variable Wind from NNE
Gusts 3.0 mph

Today
High -- | Low -- °F
--% Chance of Precip.
Yesterday
High -- | Low -- °F
Precip. -- in
Pressure 29.90 in
Visibility 9.0 miles
Clouds Scattered Clouds 4600 ft
Mostly Cloudy 6000 ft
Overcast 7500 ft
Dew Point 69 °F
Humidity 91%
Rainfall 0.45 in
Snow Depth Not available.
5:26 AM 8:24 PM
Waning Crescent, 10% visible
SPECI KLEB 201943Z 01004G15KT 9SM -RA SCT046 BKN060 OVC075 24/21 A2990 RMK AO2 RAB27 TSB22 P0000 T02440206
Pressure 29.90 in
Visibility 9.0 miles
Clouds Scattered Clouds 4600 ft
Mostly Cloudy 6000 ft
Overcast 7500 ft
Dew Point 69 °F
Humidity 91%
Rainfall 0.45 in
Snow Depth Not available.
5:26 AM 8:24 PM
Waning Crescent, 10% visible
SPECI KLEB 201943Z 01004G15KT 9SM -RA SCT046 BKN060 OVC075 24/21 A2990 RMK AO2 RAB27 TSB22 P0000 T02440206

Get Severe Weather Alerts

Thanks for signing up!

Be on the lookout for a verification email in your inbox.

You'll start receiving the daily forecast at 6 AM.

×

10-Day Weather Forecast

Almanac

Astronomy

Jul. 20, 2017 Rise Set
Actual Time
Civil Twilight
Nautical Twilight
Astronomical Twilight
Moon
Length of Visible Light
Length of Day
Tomorrow will be .
, % of the Moon is Illuminated

Today's Extremes

State Highs State Lows

Community

WunderPhotos

Category 6

Welcome to Category 6. This is the collective home for Weather Underground's featured writeups by Dr. Jeff Masters (right), Bob Henson (left), Chris Burt, and other regular contributors.

Nearby

Air Quality

  Air Quality AQ Index Pollutant
Not available.

Snow Depth

Station Depth Elevation

Earthquake Activity

City Distance Mag. Time & Date
Minimum magnitude displayed is 2.5.

Coastal Water Temperatures

Place Temperature

Stations

Nearby Weather Stations

Station Location Temp. Windchill Dew Point Humidity Wind Precip. Elev Updated Type
                   

Watches & Warnings

There are currently no watches in effect.